Time;durP1;ratioP1;P1;durP2;ratioP2;P2;SDS_P1;SDS_P2;PMS_P1;PMS_P2;Temp;Humidity;BMP_temperature;BMP_pressure;BME280_temperature;BME280_humidity;BME280_pressure;Samples;Min_cycle;Max_cycle;Signal;HPM_P1;HPM_P2
2022/09/23 09:08:03;;;;;;;19.80;13.98;;;;;;;;;;5150451;27;20297;-64
2022/09/23 09:10:32;;;;;;;18.65;13.57;;;;;;;;;;5150719;27;20107;-61
2022/09/23 09:13:06;;;;;;;20.08;14.10;;;;;;;;;;5151130;27;20079;-61
2022/09/23 09:15:34;;;;;;;17.88;13.30;;;;;;;;;;5149533;27;20030;-61
2022/09/23 09:18:06;;;;;;;19.23;14.07;;;;;;;;;;5150085;27;20030;-63
2022/09/23 09:20:44;;;;;;;19.85;13.45;;;;;;;;;;5150512;27;20023;-63
2022/09/23 09:23:20;;;;;;;18.63;13.30;;;;;;;;;;5149245;27;20029;-63
2022/09/23 09:25:51;;;;;;;19.08;14.10;;;;;;;;;;5129909;27;20064;-63
2022/09/23 09:28:26;;;;;;;19.02;13.80;;;;;;;;;;5128895;27;20031;-62
2022/09/23 09:30:55;;;;;;;19.42;13.55;;;;;;;;;;5129537;27;20043;-62
2022/09/23 09:33:26;;;;;;;17.75;13.43;;;;;;;;;;5130109;27;20023;-62
2022/09/23 09:35:56;;;;;;;17.92;13.38;;;;;;;;;;5128271;27;20023;-62
2022/09/23 09:38:22;;;;;;;18.33;13.80;;;;;;;;;;5127954;27;20029;-63
2022/09/23 09:40:49;;;;;;;22.58;13.88;;;;;;;;;;5129206;27;20421;-63
2022/09/23 09:43:22;;;;;;;17.60;13.35;;;;;;;;;;5129459;27;20486;-63
2022/09/23 09:45:57;;;;;;;18.75;14.15;;;;;;;;;;5129523;27;20099;-62
2022/09/23 09:48:31;;;;;;;23.23;14.50;;;;;;;;;;5128722;27;20023;-62
2022/09/23 09:50:57;;;;;;;19.75;14.40;;;;;;;;;;5128909;27;20043;-63
2022/09/23 09:53:27;;;;;;;17.80;14.52;;;;;;;;;;5128981;27;20062;-60
2022/09/23 09:56:04;;;;;;;17.83;13.90;;;;;;;;;;5128838;27;20080;-63
2022/09/23 09:58:49;;;;;;;19.33;13.70;;;;;;;;;;5128218;27;20068;-62
2022/09/23 10:01:23;;;;;;;18.00;13.80;;;;;;;;;;5129624;27;20045;-62
2022/09/23 10:03:50;;;;;;;17.63;13.77;;;;;;;;;;5129534;27;20062;-61
2022/09/23 10:06:22;;;;;;;18.63;14.45;;;;;;;;;;5128870;27;20027;-67
2022/09/23 10:09:09;;;;;;;18.75;13.75;;;;;;;;;;5129481;27;20020;-67
2022/09/23 10:11:35;;;;;;;18.15;14.18;;;;;;;;;;5129133;27;20063;-64
2022/09/23 10:14:11;;;;;;;17.42;13.90;;;;;;;;;;5129086;27;20023;-64
2022/09/23 10:16:38;;;;;;;20.83;14.88;;;;;;;;;;5129350;27;20023;-65
2022/09/23 10:19:12;;;;;;;19.00;13.82;;;;;;;;;;5116675;27;20034;-62
2022/09/23 10:21:40;;;;;;;20.38;14.23;;;;;;;;;;5113256;28;20042;-64
2022/09/23 10:24:07;;;;;;;16.97;13.73;;;;;;;;;;5121542;27;20505;-64
2022/09/23 10:26:45;;;;;;;17.80;13.68;;;;;;;;;;5135986;27;20031;-64
2022/09/23 10:29:32;;;;;;;18.40;13.70;;;;;;;;;;5135974;27;20167;-64
2022/09/23 10:32:16;;;;;;;19.50;14.63;;;;;;;;;;5135987;27;20028;-64
2022/09/23 10:34:43;;;;;;;18.05;14.70;;;;;;;;;;5133595;27;20029;-65
2022/09/23 10:37:30;;;;;;;19.00;14.70;;;;;;;;;;5134010;27;20548;-64
2022/09/23 10:48:54;;;;;;;17.90;14.40;;;;;;;;;;5134949;27;20038;-65
2022/09/23 10:51:24;;;;;;;19.95;14.15;;;;;;;;;;5135453;27;20030;-64
2022/09/23 10:54:00;;;;;;;18.38;13.50;;;;;;;;;;5135528;27;20023;-65
2022/09/23 10:56:33;;;;;;;18.08;13.60;;;;;;;;;;5135131;27;20142;-62
2022/09/23 10:59:05;;;;;;;17.95;13.85;;;;;;;;;;5134804;27;20027;-64
2022/09/23 11:01:43;;;;;;;18.40;14.27;;;;;;;;;;5136798;27;20050;-62
2022/09/23 11:04:13;;;;;;;16.90;13.65;;;;;;;;;;5135555;27;20097;-64
2022/09/23 11:06:42;;;;;;;17.25;13.38;;;;;;;;;;5134724;27;20052;-63
2022/09/23 11:09:08;;;;;;;18.80;14.18;;;;;;;;;;5134048;27;20016;-64
2022/09/23 11:11:53;;;;;;;18.00;13.52;;;;;;;;;;5135207;27;20022;-64
2022/09/23 11:14:19;;;;;;;20.05;13.38;;;;;;;;;;5135158;27;20099;-64
2022/09/23 11:16:54;;;;;;;18.65;13.57;;;;;;;;;;5135017;27;20054;-62
2022/09/23 11:19:31;;;;;;;17.48;13.68;;;;;;;;;;5134035;27;20065;-63
2022/09/23 11:21:57;;;;;;;16.98;13.10;;;;;;;;;;5134463;27;20034;-62
2022/09/23 11:24:48;;;;;;;19.08;13.43;;;;;;;;;;5133431;27;20023;-64
2022/09/23 11:27:14;;;;;;;19.05;12.98;;;;;;;;;;5134265;27;20054;-64
2022/09/23 11:29:59;;;;;;;18.38;13.10;;;;;;;;;;5133742;27;20445;-61
2022/09/23 11:32:34;;;;;;;17.98;13.10;;;;;;;;;;5142924;27;20453;-64
2022/09/23 11:35:01;;;;;;;18.77;13.25;;;;;;;;;;5155264;27;20023;-62
2022/09/23 11:37:37;;;;;;;17.98;13.23;;;;;;;;;;5154785;27;20073;-64
2022/09/23 11:40:14;;;;;;;19.45;13.25;;;;;;;;;;5156432;27;20118;-65
2022/09/23 11:42:46;;;;;;;16.98;13.07;;;;;;;;;;5154738;27;20054;-63
2022/09/23 11:45:16;;;;;;;18.50;13.57;;;;;;;;;;5153697;27;20113;-64
2022/09/23 11:47:45;;;;;;;17.60;13.35;;;;;;;;;;5153991;27;20019;-63
2022/09/23 11:50:17;;;;;;;20.58;13.52;;;;;;;;;;5154638;27;20138;-64
2022/09/23 11:52:47;;;;;;;16.45;12.35;;;;;;;;;;5154787;27;20640;-64
2022/09/23 11:55:37;;;;;;;18.05;13.05;;;;;;;;;;5154019;27;20157;-64
2022/09/23 11:58:09;;;;;;;18.33;13.05;;;;;;;;;;5143575;27;20027;-64
2022/09/23 12:00:37;;;;;;;17.88;13.95;;;;;;;;;;5153335;27;20030;-65
2022/09/23 12:03:12;;;;;;;18.07;13.80;;;;;;;;;;5155385;27;20387;-63
2022/09/23 12:05:39;;;;;;;18.23;14.27;;;;;;;;;;5154695;27;20496;-62
2022/09/23 12:08:20;;;;;;;19.97;14.40;;;;;;;;;;5153805;27;20031;-63
2022/09/23 12:10:50;;;;;;;17.38;13.88;;;;;;;;;;5153873;27;20045;-59
2022/09/23 12:13:24;;;;;;;17.88;13.90;;;;;;;;;;5153986;27;20015;-59
2022/09/23 12:16:01;;;;;;;18.65;13.35;;;;;;;;;;5154114;27;20010;-59
2022/09/23 12:18:39;;;;;;;18.05;13.45;;;;;;;;;;5153502;27;20026;-58
2022/09/23 12:21:20;;;;;;;24.98;14.05;;;;;;;;;;5154122;27;20019;-57
2022/09/23 12:23:51;;;;;;;17.70;13.65;;;;;;;;;;5148999;27;20030;-61
2022/09/23 12:26:19;;;;;;;18.48;13.60;;;;;;;;;;5133216;27;20027;-61
2022/09/23 12:28:48;;;;;;;19.58;13.80;;;;;;;;;;5133072;27;20483;-60
2022/09/23 12:31:16;;;;;;;17.15;13.55;;;;;;;;;;5133531;27;20160;-61
2022/09/23 12:34:02;;;;;;;21.87;13.50;;;;;;;;;;5133592;27;20021;-62
2022/09/23 12:36:33;;;;;;;19.48;13.27;;;;;;;;;;5133520;27;20342;-60
2022/09/23 12:39:16;;;;;;;18.80;13.23;;;;;;;;;;5132842;27;20023;-61
2022/09/23 12:41:48;;;;;;;18.35;13.50;;;;;;;;;;5132030;27;20156;-62
2022/09/23 12:44:14;;;;;;;17.98;12.43;;;;;;;;;;5133556;27;20102;-58
2022/09/23 12:46:43;;;;;;;18.17;13.20;;;;;;;;;;5133248;27;20114;-61
2022/09/23 12:49:30;;;;;;;17.50;12.70;;;;;;;;;;5132622;27;20475;-60
2022/09/23 12:52:25;;;;;;;17.35;12.90;;;;;;;;;;5118896;27;20055;-58
2022/09/23 12:54:55;;;;;;;17.67;12.85;;;;;;;;;;5110907;27;20038;-60
2022/09/23 12:57:21;;;;;;;17.42;12.50;;;;;;;;;;5132673;27;20035;-57
2022/09/23 13:00:13;;;;;;;16.88;12.15;;;;;;;;;;5131710;27;20114;-59
2022/09/23 13:02:46;;;;;;;19.45;13.23;;;;;;;;;;5132639;27;20023;-59
2022/09/23 13:08:15;;;;;;;16.58;12.05;;;;;;;;;;5133420;27;20057;-61
2022/09/23 13:10:48;;;;;;;17.58;12.15;;;;;;;;;;5133303;27;20031;-61
2022/09/23 13:13:40;;;;;;;17.73;12.55;;;;;;;;;;5132022;27;20546;-56
2022/09/23 13:16:28;;;;;;;19.15;12.35;;;;;;;;;;5129445;27;20035;-60
2022/09/23 13:18:56;;;;;;;19.40;13.25;;;;;;;;;;5147792;27;20031;-62
2022/09/23 13:21:41;;;;;;;17.80;12.80;;;;;;;;;;5152162;27;20069;-58
2022/09/23 13:24:13;;;;;;;17.60;12.70;;;;;;;;;;5144062;27;20605;-61
2022/09/23 13:26:46;;;;;;;17.60;12.85;;;;;;;;;;5132336;27;20027;-59
2022/09/23 13:29:16;;;;;;;16.98;12.18;;;;;;;;;;4762059;27;9999816;-61
2022/09/23 13:31:43;;;;;;;16.90;12.07;;;;;;;;;;5123733;27;20400;-60
2022/09/23 13:34:12;;;;;;;18.23;12.30;;;;;;;;;;5117271;27;20015;-61
2022/09/23 13:36:44;;;;;;;17.05;12.48;;;;;;;;;;5108651;28;20032;-60
2022/09/23 13:39:15;;;;;;;17.00;12.82;;;;;;;;;;5126190;27;20443;-57
2022/09/23 13:41:42;;;;;;;17.75;12.43;;;;;;;;;;5127668;27;20065;-60
2022/09/23 13:44:18;;;;;;;16.88;12.15;;;;;;;;;;5127696;27;20045;-58
2022/09/23 13:46:46;;;;;;;17.10;11.90;;;;;;;;;;4768279;27;10000577;-59
2022/09/23 13:49:23;;;;;;;18.33;12.07;;;;;;;;;;5108089;28;20116;-61
2022/09/23 13:51:50;;;;;;;18.60;12.52;;;;;;;;;;5107827;28;20119;-60
2022/09/23 13:54:28;;;;;;;18.90;12.60;;;;;;;;;;5111944;28;20102;-60
2022/09/23 13:56:57;;;;;;;16.95;11.70;;;;;;;;;;5112093;28;20429;-58
2022/09/23 13:59:24;;;;;;;17.35;11.50;;;;;;;;;;5112474;28;20027;-57
2022/09/23 14:01:50;;;;;;;20.48;12.25;;;;;;;;;;5112552;28;20541;-61
2022/09/23 14:04:26;;;;;;;17.38;12.18;;;;;;;;;;5119685;27;20053;-59
2022/09/23 14:06:52;;;;;;;16.95;11.68;;;;;;;;;;5132688;27;20030;-62
2022/09/23 14:09:19;;;;;;;20.70;13.68;;;;;;;;;;5130546;27;20483;-62
2022/09/23 14:11:45;;;;;;;19.58;13.20;;;;;;;;;;5132954;27;20150;-58
2022/09/23 14:14:13;;;;;;;17.95;12.50;;;;;;;;;;5132729;27;20023;-58
2022/09/23 14:16:40;;;;;;;17.00;11.90;;;;;;;;;;5132848;27;20075;-57
2022/09/23 14:19:08;;;;;;;17.27;12.43;;;;;;;;;;5131654;27;20050;-60
2022/09/23 14:21:36;;;;;;;16.10;11.93;;;;;;;;;;5131731;27;20052;-60
2022/09/23 14:24:21;;;;;;;16.45;11.98;;;;;;;;;;5126928;27;20078;-58
2022/09/23 14:27:08;;;;;;;16.83;13.30;;;;;;;;;;5115182;28;20115;-58
2022/09/23 14:29:38;;;;;;;16.92;12.88;;;;;;;;;;5110226;28;20032;-60
2022/09/23 14:32:12;;;;;;;17.33;12.57;;;;;;;;;;5114853;28;20030;-59
2022/09/23 14:34:42;;;;;;;17.35;12.80;;;;;;;;;;5115629;28;20045;-61
2022/09/23 14:40:02;;;;;;;20.45;13.90;;;;;;;;;;5135960;27;20057;-63
2022/09/23 14:42:31;;;;;;;19.70;13.63;;;;;;;;;;4778055;27;10000743;-60
2022/09/23 14:44:57;;;;;;;18.00;14.00;;;;;;;;;;5132405;27;20031;-63
2022/09/23 14:47:23;;;;;;;18.75;13.77;;;;;;;;;;5132089;27;20027;-59
2022/09/23 14:52:35;;;;;;;17.60;13.45;;;;;;;;;;5132738;27;20547;-61
2022/09/23 14:55:01;;;;;;;17.58;13.52;;;;;;;;;;5132894;27;20359;-61
2022/09/23 14:57:30;;;;;;;18.05;12.90;;;;;;;;;;5132149;27;20114;-61
2022/09/23 15:00:07;;;;;;;18.63;12.18;;;;;;;;;;5132365;27;20482;-61
2022/09/23 15:02:34;;;;;;;17.60;13.10;;;;;;;;;;5133029;27;20065;-61
2022/09/23 15:05:27;;;;;;;18.90;12.97;;;;;;;;;;4777557;27;9999698;-61
2022/09/23 15:07:55;;;;;;;17.13;12.65;;;;;;;;;;5099365;27;20304;-60
2022/09/23 15:10:22;;;;;;;16.77;13.07;;;;;;;;;;5131067;27;20055;-62
2022/09/23 15:12:49;;;;;;;17.08;13.80;;;;;;;;;;5133710;27;20047;-60
2022/09/23 15:15:15;;;;;;;18.15;13.00;;;;;;;;;;5151793;27;20069;-63
2022/09/23 15:17:42;;;;;;;18.05;12.55;;;;;;;;;;5151404;27;20031;-62
2022/09/23 15:20:17;;;;;;;18.23;12.40;;;;;;;;;;5151792;27;20023;-59
2022/09/23 15:22:44;;;;;;;18.73;12.32;;;;;;;;;;5146507;27;20133;-61
2022/09/23 15:25:15;;;;;;;18.23;12.13;;;;;;;;;;5127583;27;20076;-60
2022/09/23 15:27:41;;;;;;;17.02;12.52;;;;;;;;;;5131134;27;20051;-58
2022/09/23 15:30:16;;;;;;;18.50;12.63;;;;;;;;;;5132285;27;20016;-61
2022/09/23 15:32:43;;;;;;;17.15;11.90;;;;;;;;;;5129018;27;20068;-61
2022/09/23 15:35:17;;;;;;;17.58;12.48;;;;;;;;;;5131103;27;20023;-62
2022/09/23 15:37:44;;;;;;;17.15;12.10;;;;;;;;;;5130715;27;20031;-57
2022/09/23 15:40:17;;;;;;;18.73;11.82;;;;;;;;;;5131497;27;20027;-62
2022/09/23 15:42:51;;;;;;;18.52;12.27;;;;;;;;;;5131202;27;20051;-61
2022/09/23 15:45:19;;;;;;;18.90;12.10;;;;;;;;;;5131397;27;20111;-62
2022/09/23 15:47:46;;;;;;;17.05;11.82;;;;;;;;;;5128760;27;20372;-59
2022/09/23 15:50:16;;;;;;;21.05;13.30;;;;;;;;;;5131428;27;20424;-60
2022/09/23 15:52:43;;;;;;;19.08;13.00;;;;;;;;;;5130824;27;20023;-60
2022/09/23 15:55:21;;;;;;;17.77;12.20;;;;;;;;;;5131050;27;20460;-59
2022/09/23 15:57:47;;;;;;;17.50;11.95;;;;;;;;;;5120016;27;20051;-57
2022/09/23 16:00:14;;;;;;;17.75;12.52;;;;;;;;;;5113968;27;20078;-59
2022/09/23 16:02:42;;;;;;;18.55;12.73;;;;;;;;;;5120953;27;20043;-60
2022/09/23 16:05:15;;;;;;;19.63;12.52;;;;;;;;;;5113579;27;20488;-60
2022/09/23 16:07:41;;;;;;;19.83;12.40;;;;;;;;;;5123017;27;20023;-62
2022/09/23 16:10:07;;;;;;;17.35;12.40;;;;;;;;;;5130418;27;20012;-62
2022/09/23 16:12:33;;;;;;;19.15;12.27;;;;;;;;;;5130868;27;20061;-60
2022/09/23 16:14:59;;;;;;;20.48;11.98;;;;;;;;;;5130896;27;20055;-60
2022/09/23 16:17:27;;;;;;;17.63;11.57;;;;;;;;;;5130400;27;20031;-62
2022/09/23 16:19:53;;;;;;;17.07;12.60;;;;;;;;;;5132962;27;20029;-62
2022/09/23 16:22:19;;;;;;;18.15;12.65;;;;;;;;;;4777694;27;9999681;-62
2022/09/23 16:24:46;;;;;;;17.50;12.25;;;;;;;;;;5120854;27;20045;-62
2022/09/23 16:27:16;;;;;;;17.00;11.90;;;;;;;;;;5120515;27;20425;-59
2022/09/23 16:29:42;;;;;;;19.45;13.05;;;;;;;;;;5118729;27;20043;-60
2022/09/23 16:32:08;;;;;;;19.00;12.45;;;;;;;;;;5119373;27;20019;-61
2022/09/23 16:34:34;;;;;;;17.38;11.93;;;;;;;;;;5120180;27;20031;-60
2022/09/23 16:37:00;;;;;;;19.15;12.98;;;;;;;;;;5118638;27;20019;-61
2022/09/23 16:39:26;;;;;;;19.20;12.70;;;;;;;;;;5119237;27;20034;-56
2022/09/23 16:41:52;;;;;;;17.58;12.57;;;;;;;;;;5120181;27;20027;-59
2022/09/23 16:44:21;;;;;;;20.55;12.80;;;;;;;;;;5118658;27;20395;-59
2022/09/23 16:46:47;;;;;;;20.60;12.90;;;;;;;;;;5121226;27;20502;-60
2022/09/23 16:49:13;;;;;;;17.63;12.15;;;;;;;;;;5125148;27;20019;-62
2022/09/23 16:51:39;;;;;;;18.95;13.27;;;;;;;;;;5114855;27;20028;-60
2022/09/23 16:54:12;;;;;;;18.70;12.38;;;;;;;;;;5115249;28;20047;-59
2022/09/23 16:56:42;;;;;;;21.58;13.82;;;;;;;;;;5114441;28;20027;-58
2022/09/23 16:59:08;;;;;;;21.25;13.02;;;;;;;;;;5109423;28;20032;-60
2022/09/23 17:04:20;;;;;;;19.77;13.70;;;;;;;;;;5068651;28;20040;-63
2022/09/23 17:06:48;;;;;;;21.55;12.85;;;;;;;;;;5069181;28;20032;-63
2022/09/23 17:09:15;;;;;;;18.70;12.93;;;;;;;;;;5083058;28;20082;-65
2022/09/23 17:11:47;;;;;;;18.83;12.65;;;;;;;;;;5076262;28;20028;-64
2022/09/23 17:14:16;;;;;;;18.73;12.45;;;;;;;;;;5070620;28;20024;-63
2022/09/23 17:16:42;;;;;;;18.55;13.00;;;;;;;;;;5067893;28;20147;-63
2022/09/23 17:19:10;;;;;;;26.38;13.50;;;;;;;;;;5065877;28;20036;-64
2022/09/23 17:21:36;;;;;;;19.65;13.70;;;;;;;;;;5067628;28;20032;-63
2022/09/23 17:24:03;;;;;;;22.00;13.43;;;;;;;;;;5079037;28;20039;-62
2022/09/23 17:26:29;;;;;;;19.63;13.18;;;;;;;;;;5088065;28;20400;-62
2022/09/23 17:28:56;;;;;;;19.70;13.15;;;;;;;;;;5089492;28;20020;-64
2022/09/23 17:31:23;;;;;;;21.27;13.25;;;;;;;;;;5091825;28;20027;-64
2022/09/23 17:33:49;;;;;;;21.73;13.45;;;;;;;;;;5091909;28;20024;-62
2022/09/23 17:36:16;;;;;;;19.70;12.38;;;;;;;;;;5090715;28;20020;-64
2022/09/23 17:38:43;;;;;;;18.48;12.50;;;;;;;;;;5088384;28;20085;-63
2022/09/23 17:41:10;;;;;;;19.77;12.77;;;;;;;;;;5078876;28;20126;-63
2022/09/23 17:43:37;;;;;;;21.10;13.30;;;;;;;;;;5086294;28;20166;-64
2022/09/23 17:46:05;;;;;;;18.70;13.48;;;;;;;;;;5091306;28;20032;-65
2022/09/23 17:48:32;;;;;;;20.73;13.50;;;;;;;;;;5091027;28;20144;-64
2022/09/23 17:51:25;;;;;;;19.35;13.32;;;;;;;;;;5090759;28;20051;-63
2022/09/23 17:53:51;;;;;;;21.25;13.70;;;;;;;;;;5088915;28;20090;-61
2022/09/23 17:56:19;;;;;;;20.33;13.88;;;;;;;;;;5092602;28;20028;-62
2022/09/23 17:58:46;;;;;;;21.00;13.90;;;;;;;;;;5091923;28;20038;-64
2022/09/23 18:01:13;;;;;;;22.60;14.25;;;;;;;;;;5093552;28;20046;-63
2022/09/23 18:03:42;;;;;;;20.58;13.88;;;;;;;;;;4741137;28;9999919;-63
2022/09/23 18:06:14;;;;;;;20.23;13.45;;;;;;;;;;5090920;28;20028;-63
2022/09/23 18:08:40;;;;;;;19.48;13.30;;;;;;;;;;5090004;28;20035;-63
2022/09/23 18:11:18;;;;;;;20.58;13.93;;;;;;;;;;5089463;28;20027;-64
2022/09/23 18:14:03;;;;;;;21.50;14.40;;;;;;;;;;5090860;28;20056;-64
2022/09/23 18:16:38;;;;;;;21.80;14.15;;;;;;;;;;5090439;28;20058;-64
2022/09/23 18:19:04;;;;;;;20.73;13.05;;;;;;;;;;5090180;28;20032;-64
2022/09/23 18:21:32;;;;;;;19.45;13.40;;;;;;;;;;5089391;28;20507;-63
2022/09/23 18:23:59;;;;;;;20.55;14.40;;;;;;;;;;5090648;28;20025;-63
2022/09/23 18:26:25;;;;;;;24.83;14.68;;;;;;;;;;5090918;28;20024;-63
2022/09/23 18:28:55;;;;;;;24.30;15.65;;;;;;;;;;5089521;28;20492;-63
2022/09/23 18:31:22;;;;;;;21.27;14.10;;;;;;;;;;5090635;28;20008;-63
2022/09/23 18:33:51;;;;;;;21.67;14.10;;;;;;;;;;5087425;28;20021;-63
2022/09/23 18:36:18;;;;;;;22.65;13.65;;;;;;;;;;5090476;28;20584;-63
2022/09/23 18:38:45;;;;;;;22.50;14.10;;;;;;;;;;5089138;28;20320;-63
2022/09/23 18:41:11;;;;;;;21.38;13.77;;;;;;;;;;5088810;28;20035;-63
2022/09/23 18:43:37;;;;;;;21.58;14.75;;;;;;;;;;5090170;28;20036;-63
2022/09/23 18:46:04;;;;;;;22.33;14.65;;;;;;;;;;5088840;28;20035;-63
2022/09/23 18:51:18;;;;;;;22.73;14.75;;;;;;;;;;5090298;28;20043;-63
2022/09/23 18:53:49;;;;;;;21.60;14.50;;;;;;;;;;5090356;28;20076;-64
2022/09/23 18:56:16;;;;;;;21.58;14.55;;;;;;;;;;5090230;28;20278;-63
2022/09/23 18:58:45;;;;;;;22.35;13.90;;;;;;;;;;5087709;28;20028;-62
2022/09/23 19:01:12;;;;;;;22.20;15.45;;;;;;;;;;5089939;28;20035;-63
2022/09/23 19:03:38;;;;;;;19.95;14.68;;;;;;;;;;5089746;28;20408;-63
2022/09/23 19:06:05;;;;;;;21.73;15.27;;;;;;;;;;5089573;28;20016;-64
2022/09/23 19:08:31;;;;;;;21.30;14.85;;;;;;;;;;5089225;28;20028;-64
2022/09/23 19:10:58;;;;;;;23.30;15.20;;;;;;;;;;5089700;28;20358;-64
2022/09/23 19:13:24;;;;;;;22.55;15.55;;;;;;;;;;5089922;28;20035;-61
2022/09/23 19:15:50;;;;;;;21.15;14.73;;;;;;;;;;5089393;28;20862;-62
2022/09/23 19:18:19;;;;;;;21.33;15.38;;;;;;;;;;5088980;28;20028;-64
2022/09/23 19:20:48;;;;;;;23.40;14.82;;;;;;;;;;5089777;28;20123;-63
2022/09/23 19:23:14;;;;;;;20.15;14.38;;;;;;;;;;5089342;28;20043;-63
2022/09/23 19:25:41;;;;;;;24.15;13.35;;;;;;;;;;5089624;28;20043;-65
2022/09/23 19:28:07;;;;;;;20.90;13.52;;;;;;;;;;5088321;28;20039;-63
2022/09/23 19:30:34;;;;;;;20.10;14.68;;;;;;;;;;5088075;28;20028;-63
2022/09/23 19:33:01;;;;;;;20.52;14.20;;;;;;;;;;5089526;28;20027;-63
2022/09/23 19:35:28;;;;;;;20.48;13.68;;;;;;;;;;5089660;28;20111;-63
2022/09/23 19:37:56;;;;;;;23.15;14.57;;;;;;;;;;5088666;28;20480;-61
2022/09/23 19:40:22;;;;;;;19.08;13.20;;;;;;;;;;5092015;28;20028;-62
2022/09/23 19:42:52;;;;;;;19.65;13.98;;;;;;;;;;5092174;28;20096;-62
2022/09/23 19:45:20;;;;;;;19.65;13.20;;;;;;;;;;5092285;28;20077;-64
2022/09/23 19:47:46;;;;;;;20.93;14.17;;;;;;;;;;5090056;28;20058;-61
2022/09/23 19:50:12;;;;;;;25.58;15.13;;;;;;;;;;5091685;28;20028;-65
2022/09/23 19:52:38;;;;;;;26.17;16.40;;;;;;;;;;5092025;28;20020;-65
2022/09/23 19:55:05;;;;;;;21.08;13.50;;;;;;;;;;5111005;28;20428;-65
2022/09/23 19:57:32;;;;;;;21.95;13.80;;;;;;;;;;5110179;28;20055;-65
2022/09/23 19:59:58;;;;;;;21.40;14.02;;;;;;;;;;4750462;28;10000273;-59
2022/09/23 20:02:24;;;;;;;23.08;14.15;;;;;;;;;;5079988;28;20123;-65
2022/09/23 20:04:51;;;;;;;25.77;14.45;;;;;;;;;;5068375;28;20051;-64
2022/09/23 20:07:18;;;;;;;20.02;13.70;;;;;;;;;;5066256;28;20032;-62
2022/09/23 20:09:44;;;;;;;21.35;14.20;;;;;;;;;;5067092;28;20108;-62
2022/09/23 20:12:10;;;;;;;21.48;13.40;;;;;;;;;;5068027;28;20113;-64
2022/09/23 20:14:36;;;;;;;20.27;13.23;;;;;;;;;;5068375;28;20025;-63
2022/09/23 20:17:02;;;;;;;21.15;14.40;;;;;;;;;;5068451;28;20480;-61
2022/09/23 20:19:28;;;;;;;22.02;14.60;;;;;;;;;;5066297;28;20025;-64
2022/09/23 20:24:39;;;;;;;20.55;14.05;;;;;;;;;;5086342;28;20038;-63
2022/09/23 20:27:08;;;;;;;21.98;14.93;;;;;;;;;;5088567;28;20107;-63
2022/09/23 20:29:34;;;;;;;;;;;;;;;;;;5088760;28;20024;-65
2022/09/23 20:32:00;;;;;;;22.33;14.77;;;;;;;;;;5087080;28;19904;-65
2022/09/23 20:34:29;;;;;;;20.02;15.20;;;;;;;;;;5087278;28;20016;-63
2022/09/23 20:36:56;;;;;;;20.88;14.60;;;;;;;;;;5087751;28;20769;-62
2022/09/23 20:39:22;;;;;;;21.50;14.90;;;;;;;;;;5087645;28;20024;-63
2022/09/23 20:41:48;;;;;;;22.65;15.23;;;;;;;;;;5088230;28;20024;-64
2022/09/23 20:44:14;;;;;;;22.15;15.98;;;;;;;;;;5088573;28;20055;-64
2022/09/23 20:46:43;;;;;;;24.30;15.80;;;;;;;;;;5088095;28;20024;-63
2022/09/23 20:49:09;;;;;;;18.98;14.13;;;;;;;;;;5085698;28;20020;-63
2022/09/23 20:51:35;;;;;;;19.67;13.52;;;;;;;;;;5086254;28;20186;-64
2022/09/23 20:54:02;;;;;;;22.10;13.80;;;;;;;;;;5088093;28;20035;-64
2022/09/23 20:56:28;;;;;;;20.90;14.30;;;;;;;;;;5088061;28;20384;-64
2022/09/23 20:58:54;;;;;;;19.20;13.60;;;;;;;;;;5078340;28;20036;-63
2022/09/23 21:01:20;;;;;;;21.40;13.88;;;;;;;;;;5086024;28;20537;-64
2022/09/23 21:03:48;;;;;;;20.98;15.00;;;;;;;;;;5087658;28;20036;-65
2022/09/23 21:06:15;;;;;;;22.02;14.32;;;;;;;;;;5088167;28;20088;-64
2022/09/23 21:08:41;;;;;;;22.40;14.88;;;;;;;;;;5086862;28;20919;-62
2022/09/23 21:11:10;;;;;;;20.20;14.27;;;;;;;;;;5077770;28;20196;-65
2022/09/23 21:13:36;;;;;;;22.45;15.20;;;;;;;;;;5069780;28;20017;-64
2022/09/23 21:16:03;;;;;;;20.38;14.77;;;;;;;;;;5070965;28;20129;-64
2022/09/23 21:18:29;;;;;;;21.13;15.73;;;;;;;;;;5070858;28;20476;-64
2022/09/23 21:20:58;;;;;;;21.17;15.77;;;;;;;;;;4723211;28;9999674;-62
2022/09/23 21:23:29;;;;;;;20.67;15.20;;;;;;;;;;5077899;28;20265;-64
2022/09/23 21:26:03;;;;;;;22.92;14.90;;;;;;;;;;5083784;28;20036;-64
2022/09/23 21:28:34;;;;;;;20.60;14.43;;;;;;;;;;5087175;28;20503;-63
2022/09/23 21:31:01;;;;;;;20.80;13.65;;;;;;;;;;5086396;28;20024;-64
2022/09/23 21:33:27;;;;;;;19.35;13.68;;;;;;;;;;5087494;28;20031;-62
2022/09/23 21:35:57;;;;;;;20.40;14.30;;;;;;;;;;5088022;28;20044;-64
2022/09/23 21:38:23;;;;;;;22.23;14.70;;;;;;;;;;5087362;28;20484;-65
2022/09/23 21:40:56;;;;;;;22.63;14.70;;;;;;;;;;5087725;28;20024;-64
2022/09/23 21:43:24;;;;;;;23.98;14.73;;;;;;;;;;5087908;28;20035;-64
2022/09/23 21:45:57;;;;;;;20.40;14.20;;;;;;;;;;5087777;28;20017;-64
2022/09/23 21:48:23;;;;;;;22.10;14.57;;;;;;;;;;5087351;28;20051;-63
2022/09/23 21:51:00;;;;;;;22.52;14.00;;;;;;;;;;5087945;28;20021;-62
2022/09/23 21:53:30;;;;;;;20.08;14.00;;;;;;;;;;5086779;28;20031;-64
2022/09/23 21:56:02;;;;;;;23.20;14.40;;;;;;;;;;5087632;28;20226;-64
2022/09/23 21:58:29;;;;;;;20.65;14.20;;;;;;;;;;5085968;28;20146;-64
2022/09/23 22:00:55;;;;;;;19.75;14.00;;;;;;;;;;5083401;28;20024;-59
2022/09/23 22:03:21;;;;;;;22.45;14.65;;;;;;;;;;5076008;28;20021;-64
2022/09/23 22:05:47;;;;;;;22.65;13.88;;;;;;;;;;5076059;28;20399;-64
2022/09/23 22:08:13;;;;;;;22.13;14.50;;;;;;;;;;5082387;28;20054;-61
2022/09/23 22:10:39;;;;;;;21.17;14.15;;;;;;;;;;5087854;28;20024;-64
2022/09/23 22:13:06;;;;;;;21.55;14.52;;;;;;;;;;5087810;28;20465;-63
2022/09/23 22:15:36;;;;;;;22.52;14.30;;;;;;;;;;5090974;28;20024;-64
2022/09/23 22:18:04;;;;;;;20.80;13.93;;;;;;;;;;5087934;28;20138;-64
2022/09/23 22:20:31;;;;;;;22.98;13.80;;;;;;;;;;5090840;28;20036;-65
2022/09/23 22:22:57;;;;;;;31.43;14.70;;;;;;;;;;5090876;28;20557;-65
2022/09/23 22:25:24;;;;;;;22.02;14.75;;;;;;;;;;5089360;28;20032;-65
2022/09/23 22:33:22;;;;;;;21.15;14.80;;;;;;;;;;5090744;28;20405;-65
2022/09/23 22:35:48;;;;;;;20.45;14.60;;;;;;;;;;5080649;28;20024;-64
2022/09/23 22:38:14;;;;;;;21.50;15.20;;;;;;;;;;5079269;28;20027;-63
2022/09/23 22:40:42;;;;;;;20.73;14.65;;;;;;;;;;5077979;28;20133;-64
2022/09/23 22:43:08;;;;;;;22.95;15.88;;;;;;;;;;5069637;28;20027;-63
2022/09/23 22:45:36;;;;;;;22.38;15.02;;;;;;;;;;5074516;28;20028;-64
2022/09/23 22:48:03;;;;;;;23.88;15.60;;;;;;;;;;5086639;28;20115;-64
2022/09/23 22:50:29;;;;;;;22.63;15.35;;;;;;;;;;5090455;28;20032;-63
2022/09/23 22:52:57;;;;;;;26.52;16.15;;;;;;;;;;5072136;28;20599;-63
2022/09/23 22:55:24;;;;;;;19.95;14.65;;;;;;;;;;5071211;28;20023;-61
2022/09/23 22:57:50;;;;;;;23.77;15.45;;;;;;;;;;5085002;28;20115;-66
2022/09/23 23:00:16;;;;;;;24.30;15.88;;;;;;;;;;5090607;28;20389;-63
2022/09/23 23:02:42;;;;;;;21.58;14.20;;;;;;;;;;5090260;28;20036;-62
2022/09/23 23:05:08;;;;;;;24.20;15.07;;;;;;;;;;5090750;28;20530;-63
2022/09/23 23:07:34;;;;;;;21.48;15.00;;;;;;;;;;5089038;28;20139;-62
2022/09/23 23:10:02;;;;;;;23.13;15.75;;;;;;;;;;5089969;28;20399;-63
2022/09/23 23:12:27;;;;;;;22.27;15.77;;;;;;;;;;5085841;28;20391;-63
2022/09/23 23:14:54;;;;;;;21.98;16.10;;;;;;;;;;5068708;28;20123;-63
2022/09/23 23:17:20;;;;;;;24.30;15.02;;;;;;;;;;5069427;28;20499;-63
2022/09/23 23:19:46;;;;;;;24.33;15.90;;;;;;;;;;5069611;28;20043;-64
2022/09/23 23:22:12;;;;;;;24.40;16.45;;;;;;;;;;5068835;28;20595;-64
2022/09/23 23:24:38;;;;;;;23.45;15.70;;;;;;;;;;5087711;28;20077;-64
2022/09/23 23:27:04;;;;;;;24.98;18.02;;;;;;;;;;5089847;28;20499;-64
2022/09/23 23:29:30;;;;;;;75.45;60.40;;;;;;;;;;5089365;28;20028;-65
2022/09/23 23:31:56;;;;;;;24.85;18.70;;;;;;;;;;5089757;28;20099;-64
2022/09/23 23:34:22;;;;;;;40.33;30.90;;;;;;;;;;5089793;28;20038;-64
2022/09/23 23:36:53;;;;;;;41.30;32.42;;;;;;;;;;5089902;28;20024;-65
2022/09/23 23:39:20;;;;;;;23.60;17.55;;;;;;;;;;5087282;28;20161;-65
2022/09/23 23:41:47;;;;;;;27.42;16.08;;;;;;;;;;5088528;28;20093;-65
2022/09/23 23:44:13;;;;;;;24.10;16.40;;;;;;;;;;5089231;28;20032;-65
2022/09/23 23:46:39;;;;;;;21.70;16.08;;;;;;;;;;5089476;28;20035;-62
2022/09/23 23:49:05;;;;;;;23.40;16.30;;;;;;;;;;5088528;28;20039;-60
2022/09/23 23:51:31;;;;;;;23.90;17.33;;;;;;;;;;5088501;28;20603;-62
2022/09/23 23:53:58;;;;;;;42.38;30.52;;;;;;;;;;5112899;22;20046;-61
2022/09/23 23:56:24;;;;;;;36.85;27.50;;;;;;;;;;5092572;28;20070;-60
2022/09/23 23:58:54;;;;;;;23.20;16.63;;;;;;;;;;5074205;28;20131;-59
